Time;durP1;ratioP1;P1;durP2;ratioP2;P2;SDS_P1;SDS_P2;PMS_P1;PMS_P2;Temp;Humidity;BMP_temperature;BMP_pressure;BME280_temperature;BME280_humidity;BME280_pressure;Samples;Min_cycle;Max_cycle;Signal;HPM_P1;HPM_P2
2023/11/02 00:00:35;;;;;;;1.08;0.90;;;22.70;60.40;;;;;;6091494;23;89675;-90
2023/11/02 00:03:05;;;;;;;1.17;0.90;;;22.70;60.30;;;;;;6077610;23;90038;-91
2023/11/02 00:05:55;;;;;;;2.08;1.13;;;22.70;60.40;;;;;;6092297;23;89774;-90
2023/11/02 00:08:22;;;;;;;1.88;1.00;;;22.70;60.40;;;;;;6060669;23;87285;-90
2023/11/02 00:10:51;;;;;;;1.75;1.00;;;22.70;60.60;;;;;;6061701;23;89163;-89
2023/11/02 00:13:28;;;;;;;1.42;0.90;;;22.60;60.40;;;;;;6077100;23;91597;-90
2023/11/02 00:15:54;;;;;;;1.55;0.88;;;22.60;60.40;;;;;;6090685;23;89954;-89
2023/11/02 00:18:19;;;;;;;1.90;1.10;;;22.60;60.30;;;;;;6082069;23;87307;-90
2023/11/02 00:20:47;;;;;;;1.70;1.05;;;22.60;60.30;;;;;;6061476;23;88268;-90
2023/11/02 00:23:17;;;;;;;2.17;1.00;;;22.60;60.20;;;;;;6061993;23;90166;-89
2023/11/02 00:25:55;;;;;;;2.35;1.00;;;22.60;60.30;;;;;;6061849;23;88556;-91
2023/11/02 00:28:21;;;;;;;1.83;1.05;;;22.50;60.20;;;;;;6061462;23;88195;-89
2023/11/02 00:30:50;;;;;;;2.85;1.00;;;22.50;60.20;;;;;;6060706;23;88159;-89
2023/11/02 00:33:16;;;;;;;1.50;0.87;;;22.50;60.30;;;;;;6060355;23;90782;-89
2023/11/02 00:35:52;;;;;;;2.55;1.00;;;22.50;60.60;;;;;;6063697;23;89228;-90
2023/11/02 00:38:27;;;;;;;1.75;0.75;;;22.50;60.40;;;;;;6090178;23;88188;-89
2023/11/02 00:40:57;;;;;;;1.80;0.90;;;22.50;60.50;;;;;;6060971;23;89458;-90
2023/11/02 00:43:23;;;;;;;1.73;1.00;;;22.40;60.40;;;;;;6061260;23;90079;-90
2023/11/02 00:45:50;;;;;;;1.50;0.95;;;22.40;60.30;;;;;;6060798;23;88839;-89
2023/11/02 00:48:19;;;;;;;0.95;0.70;;;22.40;60.40;;;;;;6061793;23;87200;-90
2023/11/02 00:51:07;;;;;;;4.85;1.15;;;22.40;60.40;;;;;;6062327;23;89609;-89
2023/11/02 00:53:33;;;;;;;2.17;0.93;;;22.40;60.20;;;;;;6090711;23;88204;-90
2023/11/02 00:56:08;;;;;;;1.40;0.68;;;22.40;60.40;;;;;;6091374;23;90304;-90
2023/11/02 00:58:34;;;;;;;1.85;1.00;;;22.40;60.20;;;;;;6066632;23;87158;-90
2023/11/02 01:01:05;;;;;;;2.08;1.20;;;22.40;60.10;;;;;;6070888;23;87385;-90
2023/11/02 01:03:33;;;;;;;2.05;1.00;;;22.40;60.30;;;;;;6071156;23;91504;-89
2023/11/02 01:05:59;;;;;;;1.10;0.90;;;22.40;60.20;;;;;;6069888;23;90064;-89
2023/11/02 01:08:34;;;;;;;1.08;0.75;;;22.30;60.40;;;;;;6062253;23;87891;-90
2023/11/02 01:11:01;;;;;;;2.53;1.17;;;22.30;60.40;;;;;;6059734;23;92643;-91
2023/11/02 01:13:27;;;;;;;1.17;0.80;;;22.30;60.20;;;;;;6083061;23;90238;-89
2023/11/02 01:16:07;;;;;;;2.38;0.80;;;22.30;60.30;;;;;;6075052;23;88922;-90
2023/11/02 01:18:44;;;;;;;;;;;;;;;;;;;;;
2023/11/02 01:21:10;;;;;;;2.00;1.00;;;22.20;60.20;;;;;;6095364;23;87362;-91
2023/11/02 01:23:36;;;;;;;1.75;1.17;;;22.30;60.40;;;;;;6090056;23;90373;-90
2023/11/02 01:26:04;;;;;;;2.67;1.05;;;22.20;60.10;;;;;;6086115;23;88564;-91
2023/11/02 01:28:53;;;;;;;1.50;1.00;;;22.20;60.00;;;;;;6066715;23;88026;-90
2023/11/02 01:31:20;;;;;;;1.33;0.95;;;22.20;60.20;;;;;;6059979;23;89411;-88
2023/11/02 01:33:58;;;;;;;1.20;0.73;;;22.20;60.40;;;;;;6059493;23;90375;-87
2023/11/02 01:36:32;;;;;;;1.73;0.93;;;22.20;60.10;;;;;;6060108;23;89095;-89
2023/11/02 01:39:15;;;;;;;1.98;1.10;;;22.20;60.00;;;;;;6065617;23;87159;-90
2023/11/02 01:42:00;;;;;;;1.23;0.75;;;22.20;60.00;;;;;;6088792;23;89123;-88
2023/11/02 01:45:06;;;;;;;0.93;0.90;;;22.20;60.20;;;;;;6086312;23;90891;-90
2023/11/02 01:48:06;;;;;;;1.55;0.80;;;22.20;60.10;;;;;;6062844;23;93090;-91
2023/11/02 01:50:35;;;;;;;1.33;0.90;;;22.20;60.00;;;;;;6089244;23;87808;-90
2023/11/02 01:53:10;;;;;;;1.40;0.80;;;22.10;59.90;;;;;;6063508;23;89696;-90
2023/11/02 01:56:13;;;;;;;1.85;0.85;;;22.10;59.90;;;;;;6086312;23;90167;-89
2023/11/02 01:59:02;;;;;;;1.35;0.80;;;22.10;59.90;;;;;;6067020;23;90790;-90
2023/11/02 02:01:41;;;;;;;2.65;0.80;;;22.10;59.90;;;;;;6062717;23;87281;-90
2023/11/02 02:04:25;;;;;;;1.33;0.82;;;22.10;59.90;;;;;;6049867;23;89762;-90
2023/11/02 02:07:23;;;;;;;2.15;0.98;;;22.10;59.90;;;;;;6076927;23;90937;-89
2023/11/02 02:10:22;;;;;;;1.42;0.75;;;22.10;59.90;;;;;;5985493;23;88734;-89
2023/11/02 02:13:17;;;;;;;1.90;1.00;;;22.10;59.90;;;;;;6085386;23;87488;-89
2023/11/02 02:15:45;;;;;;;2.13;1.00;;;22.10;59.80;;;;;;6078162;23;87948;-88
2023/11/02 02:18:35;;;;;;;1.63;0.90;;;22.10;59.90;;;;;;6087727;23;90402;-88
2023/11/02 02:21:09;;;;;;;2.03;0.88;;;22.10;59.90;;;;;;6087411;23;90264;-88
2023/11/02 02:24:08;;;;;;;1.05;0.75;;;22.10;59.90;;;;;;6086998;23;88459;-90
2023/11/02 02:27:03;;;;;;;1.27;0.80;;;22.00;59.80;;;;;;6106413;22;88956;-91
2023/11/02 02:29:32;;;;;;;1.90;0.80;;;22.00;59.80;;;;;;6088819;23;94552;-91
2023/11/02 02:32:18;;;;;;;1.17;0.70;;;22.00;59.70;;;;;;6086707;23;88487;-88
2023/11/02 02:35:20;;;;;;;1.98;0.93;;;22.00;59.60;;;;;;6087898;23;87083;-89
2023/11/02 02:37:58;;;;;;;1.17;0.80;;;22.00;59.80;;;;;;6043015;23;89447;-89
2023/11/02 02:40:53;;;;;;;1.38;1.00;;;22.00;59.80;;;;;;6092133;23;90533;-90
2023/11/02 02:43:21;;;;;;;1.67;0.88;;;22.00;59.60;;;;;;6039258;23;90876;-91
2023/11/02 02:45:49;;;;;;;1.80;1.13;;;22.00;59.60;;;;;;6063570;23;88067;-89
2023/11/02 02:48:15;;;;;;;1.42;0.80;;;22.00;59.50;;;;;;6097441;23;87674;-89
2023/11/02 02:50:44;;;;;;;1.63;0.82;;;21.90;59.50;;;;;;6089116;23;90549;-88
2023/11/02 02:53:12;;;;;;;1.67;0.83;;;21.90;59.70;;;;;;6088465;23;90626;-89
2023/11/02 02:55:41;;;;;;;1.17;0.70;;;21.90;59.50;;;;;;6087897;23;87064;-90
2023/11/02 02:58:09;;;;;;;1.27;0.80;;;21.90;59.50;;;;;;6062984;23;89658;-91
2023/11/02 03:00:35;;;;;;;1.13;0.70;;;21.90;59.70;;;;;;6044431;23;89968;-92
2023/11/02 03:03:03;;;;;;;1.52;0.65;;;21.90;59.70;;;;;;6062799;23;90016;-88
2023/11/02 03:05:36;;;;;;;1.38;1.00;;;21.90;59.70;;;;;;6063033;23;87565;-88
2023/11/02 03:08:04;;;;;;;1.08;0.70;;;21.90;59.80;;;;;;6063364;23;94157;-88
2023/11/02 03:10:33;;;;;;;0.60;0.60;;;21.90;59.80;;;;;;6063672;23;90570;-90
2023/11/02 03:13:02;;;;;;;1.80;0.75;;;21.90;59.70;;;;;;6062717;23;88594;-91
2023/11/02 03:15:33;;;;;;;1.48;0.88;;;21.90;59.60;;;;;;6060745;23;88905;-89
2023/11/02 03:18:06;;;;;;;0.68;0.68;;;21.90;59.50;;;;;;6062752;23;89468;-89
2023/11/02 03:20:32;;;;;;;2.00;1.00;;;21.90;59.40;;;;;;6063209;23;88856;-90
2023/11/02 03:23:14;;;;;;;2.80;0.95;;;21.90;59.30;;;;;;6061899;23;89469;-92
2023/11/02 03:25:56;;;;;;;1.65;0.90;;;21.90;59.40;;;;;;6087424;23;87452;-91
2023/11/02 03:28:49;;;;;;;1.33;0.70;;;21.90;59.20;;;;;;6069265;23;89510;-89
2023/11/02 03:31:25;;;;;;;1.08;0.90;;;21.90;59.20;;;;;;6083119;23;90264;-91
2023/11/02 03:34:15;;;;;;;1.27;0.73;;;21.90;59.40;;;;;;6087059;23;90012;-89
2023/11/02 03:36:48;;;;;;;1.08;0.70;;;21.80;59.20;;;;;;6087376;23;87618;-90
2023/11/02 03:39:43;;;;;;;1.00;0.80;;;21.90;59.30;;;;;;6081362;23;88990;-91
2023/11/02 03:42:38;;;;;;;1.13;0.73;;;21.80;59.40;;;;;;6060017;23;91690;-90
2023/11/02 03:45:15;;;;;;;1.33;0.80;;;21.80;59.40;;;;;;6031177;23;90343;-91
2023/11/02 03:48:10;;;;;;;1.08;0.68;;;21.80;59.40;;;;;;6063605;23;87980;-90
2023/11/02 03:51:18;;;;;;;1.77;0.65;;;21.80;59.20;;;;;;6061300;23;88349;-90
2023/11/02 03:53:46;;;;;;;0.77;0.68;;;21.80;59.30;;;;;;5958757;23;90090;-89
2023/11/02 03:56:31;;;;;;;1.10;0.70;;;21.80;59.20;;;;;;6089059;23;88819;-91
2023/11/02 03:59:11;;;;;;;2.42;0.90;;;21.80;59.20;;;;;;6071279;23;87350;-91
2023/11/02 04:02:00;;;;;;;1.60;0.82;;;21.80;59.10;;;;;;6087823;23;88858;-92
2023/11/02 04:04:40;;;;;;;1.20;0.57;;;21.80;59.30;;;;;;6056336;23;89224;-89
2023/11/02 04:07:31;;;;;;;1.17;0.70;;;21.80;59.20;;;;;;6062015;23;89959;-91
2023/11/02 04:10:06;;;;;;;1.08;0.75;;;21.70;59.20;;;;;;6046576;23;88263;-91
2023/11/02 04:12:33;;;;;;;0.77;0.60;;;21.80;59.30;;;;;;6079657;23;89027;-90
2023/11/02 04:15:03;;;;;;;0.60;0.52;;;21.70;59.20;;;;;;6061275;23;90248;-89
2023/11/02 04:17:29;;;;;;;1.38;0.75;;;21.70;59.40;;;;;;6063686;23;90494;-90
2023/11/02 04:19:56;;;;;;;1.85;1.00;;;21.80;59.40;;;;;;6062454;23;87711;-91
2023/11/02 04:22:22;;;;;;;0.98;0.57;;;21.70;59.30;;;;;;6111059;23;87096;-89
2023/11/02 04:24:48;;;;;;;0.95;0.60;;;21.70;59.30;;;;;;6076438;23;89918;-89
2023/11/02 04:27:14;;;;;;;1.52;0.68;;;21.70;59.40;;;;;;6064832;23;90554;-91
2023/11/02 04:29:39;;;;;;;1.83;0.73;;;21.70;59.30;;;;;;6087666;23;86900;-91
2023/11/02 04:32:05;;;;;;;1.33;0.90;;;21.70;59.40;;;;;;6085989;23;88165;-89
2023/11/02 04:34:31;;;;;;;1.25;0.75;;;21.70;59.20;;;;;;6091765;23;90109;-90
2023/11/02 04:37:08;;;;;;;1.60;0.80;;;21.70;59.30;;;;;;6075333;23;91121;-89
2023/11/02 04:39:34;;;;;;;2.10;1.08;;;21.70;59.00;;;;;;6070289;23;87323;-91
2023/11/02 04:41:59;;;;;;;2.08;0.80;;;21.70;59.10;;;;;;6093831;23;88725;-91
2023/11/02 04:44:25;;;;;;;1.08;0.70;;;21.70;59.30;;;;;;6092801;23;90200;-90
2023/11/02 04:46:51;;;;;;;1.50;0.90;;;21.70;59.30;;;;;;6063690;23;88761;-91
2023/11/02 04:49:17;;;;;;;1.77;0.85;;;21.70;59.30;;;;;;6079092;23;87510;-90
2023/11/02 04:51:56;;;;;;;0.88;0.50;;;21.70;59.20;;;;;;6092850;23;89347;-89
2023/11/02 04:54:28;;;;;;;1.95;0.90;;;21.70;59.30;;;;;;6082286;23;88896;-91
2023/11/02 04:56:53;;;;;;;0.82;0.80;;;21.60;59.20;;;;;;6063216;23;89824;-90
2023/11/02 04:59:19;;;;;;;0.88;0.70;;;21.60;59.00;;;;;;6062732;23;87805;-91
2023/11/02 05:01:46;;;;;;;1.45;0.90;;;21.60;59.10;;;;;;6063640;23;88303;-91
2023/11/02 05:04:12;;;;;;;1.63;0.90;;;21.60;59.00;;;;;;6062987;23;88913;-90
2023/11/02 05:06:38;;;;;;;1.45;0.98;;;21.60;59.10;;;;;;6061847;23;90170;-90
2023/11/02 05:09:04;;;;;;;1.63;0.80;;;21.60;59.10;;;;;;6062472;23;87379;-89
2023/11/02 05:11:33;;;;;;;0.88;0.63;;;21.60;59.20;;;;;;6064741;23;88385;-90
2023/11/02 05:13:59;;;;;;;0.95;0.70;;;21.60;59.10;;;;;;6062455;23;89841;-90
2023/11/02 05:16:24;;;;;;;0.68;0.60;;;21.60;59.10;;;;;;6085613;23;88858;-90
2023/11/02 05:18:50;;;;;;;1.52;0.77;;;21.70;59.10;;;;;;6074341;23;87494;-89
2023/11/02 05:21:16;;;;;;;1.52;0.90;;;21.60;59.00;;;;;;6062757;23;88279;-90
2023/11/02 05:23:43;;;;;;;0.95;0.60;;;21.60;58.80;;;;;;6084755;23;89655;-89
2023/11/02 05:26:08;;;;;;;1.00;0.70;;;21.60;59.10;;;;;;6085570;23;91639;-89
2023/11/02 05:28:34;;;;;;;1.02;0.65;;;21.60;59.00;;;;;;6091120;23;87502;-90
2023/11/02 05:31:00;;;;;;;0.85;0.55;;;21.60;58.90;;;;;;6071655;23;89257;-91
2023/11/02 05:33:26;;;;;;;1.77;0.80;;;21.60;59.00;;;;;;6065770;23;89953;-89
2023/11/02 05:35:52;;;;;;;0.85;0.60;;;21.60;59.10;;;;;;6090134;23;87449;-90
2023/11/02 05:38:18;;;;;;;0.98;0.68;;;21.60;59.00;;;;;;6088450;23;87561;-91
2023/11/02 05:40:45;;;;;;;0.88;0.57;;;21.60;59.00;;;;;;6094442;23;89472;-91
2023/11/02 05:43:11;;;;;;;1.85;0.65;;;21.60;59.00;;;;;;6073026;23;89457;-92
2023/11/02 05:45:37;;;;;;;1.20;0.82;;;21.60;59.20;;;;;;6062681;23;89693;-91
2023/11/02 05:48:03;;;;;;;1.67;0.60;;;21.60;59.10;;;;;;6060414;23;88256;-90
2023/11/02 05:50:28;;;;;;;1.55;0.60;;;21.60;59.00;;;;;;6060115;23;89101;-90
2023/11/02 05:52:54;;;;;;;0.77;0.70;;;21.50;58.80;;;;;;6060765;23;89929;-90
2023/11/02 05:55:23;;;;;;;1.42;0.98;;;21.60;59.00;;;;;;6062098;23;89008;-91
2023/11/02 05:57:49;;;;;;;1.10;0.90;;;21.60;58.90;;;;;;6042629;23;87262;-88
2023/11/02 06:00:16;;;;;;;0.90;0.55;;;21.60;59.20;;;;;;6060018;23;89050;-90
2023/11/02 06:02:42;;;;;;;1.30;0.80;;;21.60;59.10;;;;;;6061096;23;88825;-91
2023/11/02 06:05:08;;;;;;;2.22;0.80;;;21.60;59.30;;;;;;6091209;23;89764;-91
2023/11/02 06:07:35;;;;;;;1.08;0.70;;;21.60;59.20;;;;;;6090856;23;87471;-91
2023/11/02 06:10:01;;;;;;;1.00;0.80;;;21.60;59.20;;;;;;6089267;23;89218;-89
2023/11/02 06:12:28;;;;;;;0.55;0.50;;;21.60;59.00;;;;;;6077837;23;90124;-86
2023/11/02 06:14:53;;;;;;;0.98;0.57;;;21.60;58.90;;;;;;6060311;23;90847;-89
2023/11/02 06:17:19;;;;;;;3.63;0.70;;;21.60;59.10;;;;;;6088878;23;87548;-90
2023/11/02 06:19:45;;;;;;;2.42;0.70;;;21.60;59.00;;;;;;6066200;23;87584;-89
2023/11/02 06:22:12;;;;;;;2.70;0.80;;;21.70;59.10;;;;;;6085133;23;87815;-91
2023/11/02 06:24:45;;;;;;;8.90;1.80;;;21.70;59.10;;;;;;6083905;23;89027;-91
2023/11/02 06:27:13;;;;;;;8.75;1.40;;;21.70;59.10;;;;;;6067063;23;87386;-90
2023/11/02 06:29:40;;;;;;;15.95;1.92;;;21.70;59.10;;;;;;6071890;23;89019;-90
2023/11/02 06:32:06;;;;;;;4.05;1.40;;;21.70;59.30;;;;;;6095228;23;89148;-89
2023/11/02 06:34:39;;;;;;;6.85;1.58;;;21.80;59.50;;;;;;6118277;23;88195;-90
2023/11/02 06:37:08;;;;;;;8.57;2.10;;;21.80;59.50;;;;;;6092668;23;88467;-88
2023/11/02 06:42:41;;;;;;;9.35;2.25;;;21.80;59.70;;;;;;6115538;23;88828;-88
2023/11/02 06:45:09;;;;;;;11.93;2.22;;;21.80;59.60;;;;;;6096639;23;89711;-88
2023/11/02 06:47:34;;;;;;;6.50;1.55;;;21.80;59.40;;;;;;6090594;23;87338;-91
2023/11/02 06:50:00;;;;;;;18.17;2.60;;;21.80;59.70;;;;;;6125006;23;87644;-89
2023/11/02 06:52:26;;;;;;;8.15;2.10;;;21.80;59.80;;;;;;6118306;23;88355;-88
2023/11/02 06:54:52;;;;;;;11.77;2.47;;;21.80;59.60;;;;;;6090564;23;89724;-87
2023/11/02 06:57:27;;;;;;;12.77;2.85;;;21.80;59.60;;;;;;6091340;23;87448;-91
2023/11/02 07:00:00;;;;;;;16.15;3.08;;;21.90;59.70;;;;;;6098172;23;88313;-88
2023/11/02 07:02:36;;;;;;;13.55;3.22;;;21.90;59.70;;;;;;6098965;23;91312;-89
2023/11/02 07:05:04;;;;;;;14.05;3.15;;;21.90;59.70;;;;;;6056870;23;94492;-87
2023/11/02 07:07:30;;;;;;;14.50;2.75;;;21.90;59.90;;;;;;6100887;23;87778;-87
2023/11/02 07:09:56;;;;;;;9.73;2.65;;;21.90;60.00;;;;;;6092834;23;87914;-87
2023/11/02 07:12:22;;;;;;;14.52;3.33;;;21.90;59.80;;;;;;6096973;23;89064;-87
2023/11/02 07:14:48;;;;;;;14.95;3.40;;;21.90;60.00;;;;;;6090746;23;89255;-87
2023/11/02 07:17:15;;;;;;;14.82;3.20;;;21.90;60.20;;;;;;6092242;23;86981;-87
2023/11/02 07:19:44;;;;;;;16.90;3.17;;;21.90;60.20;;;;;;6116605;23;86734;-85
2023/11/02 07:22:10;;;;;;;10.48;3.15;;;22.00;60.50;;;;;;6090422;23;90264;-87
2023/11/02 07:24:35;;;;;;;10.93;3.22;;;22.00;60.40;;;;;;6086965;23;90331;-87
2023/11/02 07:27:01;;;;;;;15.70;3.38;;;22.00;60.60;;;;;;6086302;23;88425;-88
2023/11/02 07:29:27;;;;;;;14.15;2.35;;;22.00;60.40;;;;;;6115101;23;87516;-87
2023/11/02 07:31:59;;;;;;;8.68;2.50;;;22.00;60.40;;;;;;6091266;23;90747;-88
2023/11/02 07:34:24;;;;;;;17.70;4.50;;;22.00;60.70;;;;;;6076427;23;88612;-87
2023/11/02 07:36:51;;;;;;;23.90;8.05;;;22.00;60.50;;;;;;6115644;23;87933;-87
2023/11/02 07:39:17;;;;;;;26.05;8.10;;;22.10;60.30;;;;;;6113195;23;87189;-86
2023/11/02 07:41:43;;;;;;;46.17;13.02;;;22.10;60.20;;;;;;6094011;23;90559;-90
2023/11/02 07:44:09;;;;;;;39.38;14.82;;;22.10;60.40;;;;;;6093161;23;88978;-92
2023/11/02 07:46:37;;;;;;;54.47;16.73;;;22.10;59.80;;;;;;6060968;23;92047;-89
2023/11/02 07:49:02;;;;;;;59.30;19.58;;;22.20;59.80;;;;;;6099562;23;87688;-89
2023/11/02 07:51:34;;;;;;;68.25;19.55;;;22.20;59.40;;;;;;6112635;23;90412;-88
2023/11/02 07:54:01;;;;;;;54.47;18.20;;;22.20;59.10;;;;;;6080287;23;91096;-90
2023/11/02 07:56:27;;;;;;;48.58;15.70;;;22.20;59.40;;;;;;6109981;23;87994;-90
2023/11/02 07:58:52;;;;;;;50.78;16.17;;;22.20;58.30;;;;;;6070906;23;89430;-89
2023/11/02 08:01:19;;;;;;;59.90;15.40;;;22.20;57.90;;;;;;6108032;23;87666;-90
2023/11/02 08:03:50;;;;;;;60.33;16.60;;;22.30;58.90;;;;;;6061141;23;90313;-92
2023/11/02 08:06:16;;;;;;;55.28;15.10;;;22.30;59.10;;;;;;6095898;23;87311;-88
2023/11/02 08:08:44;;;;;;;70.85;16.27;;;22.30;59.20;;;;;;6107200;23;87235;-88
2023/11/02 08:11:09;;;;;;;46.33;15.88;;;22.30;59.40;;;;;;6081032;23;90959;-86
2023/11/02 08:13:35;;;;;;;48.97;14.80;;;22.30;59.60;;;;;;6109068;23;87488;-94
2023/11/02 08:16:01;;;;;;;51.28;14.77;;;22.40;59.80;;;;;;6110507;23;88064;-91
2023/11/02 08:18:28;;;;;;;52.00;14.98;;;22.40;60.50;;;;;;6089558;23;88412;-85
2023/11/02 08:20:55;;;;;;;46.13;13.60;;;22.40;60.30;;;;;;6088922;23;90227;-88
2023/11/02 08:23:25;;;;;;;42.05;13.50;;;22.40;60.20;;;;;;6089748;23;87287;-89
2023/11/02 08:25:51;;;;;;;37.03;14.05;;;22.50;60.60;;;;;;6101003;23;87463;-86
2023/11/02 08:28:16;;;;;;;44.25;12.93;;;22.50;61.10;;;;;;6112865;23;87413;-86
2023/11/02 08:30:43;;;;;;;38.60;12.25;;;22.50;60.80;;;;;;6115181;23;88053;-88
2023/11/02 08:33:11;;;;;;;45.63;13.30;;;22.60;61.40;;;;;;6116395;23;87243;-86
2023/11/02 08:35:37;;;;;;;34.83;12.63;;;22.60;61.40;;;;;;6084393;23;87838;-85
2023/11/02 08:38:05;;;;;;;36.53;13.27;;;22.60;60.70;;;;;;6084685;23;88835;-85
2023/11/02 08:40:31;;;;;;;39.13;11.90;;;22.60;60.60;;;;;;6084807;23;92007;-84
2023/11/02 08:42:57;;;;;;;44.70;12.02;;;22.60;60.80;;;;;;6111429;23;88131;-89
2023/11/02 08:45:22;;;;;;;38.70;12.18;;;22.70;60.50;;;;;;6084003;23;87518;-85
2023/11/02 08:47:48;;;;;;;35.22;11.52;;;22.70;60.60;;;;;;6111366;23;87963;-86
2023/11/02 08:50:13;;;;;;;31.83;11.55;;;22.70;61.30;;;;;;6106645;23;87535;-89
2023/11/02 08:52:40;;;;;;;28.48;11.65;;;22.70;61.20;;;;;;6081275;23;90227;-89
2023/11/02 08:55:06;;;;;;;40.85;12.93;;;22.80;61.40;;;;;;6089722;23;87529;-87
2023/11/02 08:57:32;;;;;;;41.33;12.60;;;22.80;61.30;;;;;;6117469;23;88496;-89
2023/11/02 08:59:58;;;;;;;37.72;11.20;;;22.80;61.80;;;;;;6089164;23;88957;-89
2023/11/02 09:02:25;;;;;;;29.70;10.93;;;22.80;62.00;;;;;;6113583;23;86993;-87
2023/11/02 09:04:51;;;;;;;29.98;10.95;;;22.80;61.60;;;;;;6083231;23;88620;-88
2023/11/02 09:07:18;;;;;;;30.30;10.43;;;22.80;61.50;;;;;;6093456;22;94907;-85
2023/11/02 09:09:46;;;;;;;32.97;11.63;;;22.80;62.10;;;;;;6108356;23;87576;-86
2023/11/02 09:12:19;;;;;;;26.35;10.35;;;22.80;62.10;;;;;;6079374;23;89633;-87
2023/11/02 09:14:45;;;;;;;31.65;10.02;;;22.80;62.20;;;;;;6110135;23;87827;-86
2023/11/02 09:17:14;;;;;;;31.33;11.15;;;22.80;62.10;;;;;;6084003;23;88115;-87
2023/11/02 09:19:39;;;;;;;34.97;11.10;;;22.90;62.30;;;;;;6111476;23;88431;-85
2023/11/02 09:22:06;;;;;;;35.72;10.80;;;22.80;63.00;;;;;;6086712;23;90069;-86
2023/11/02 09:24:31;;;;;;;26.90;10.68;;;22.80;62.60;;;;;;6095230;23;87528;-85
2023/11/02 09:26:57;;;;;;;24.00;9.18;;;22.90;63.30;;;;;;6120673;23;87737;-88
2023/11/02 09:29:28;;;;;;;31.73;9.63;;;22.90;62.20;;;;;;6124227;23;90464;-87
2023/11/02 09:31:54;;;;;;;34.72;15.10;;;22.90;62.30;;;;;;6101082;23;90061;-88
2023/11/02 09:34:20;;;;;;;61.05;31.58;;;22.90;62.00;;;;;;6121837;23;87210;-88
2023/11/02 09:36:45;;;;;;;69.40;37.90;;;22.90;62.20;;;;;;6121057;23;87637;-87
2023/11/02 09:39:11;;;;;;;53.70;30.00;;;23.00;61.70;;;;;;6103871;23;87553;-88
2023/11/02 09:41:41;;;;;;;47.50;26.90;;;23.00;61.80;;;;;;6078753;23;90945;-88
2023/11/02 09:44:07;;;;;;;54.83;27.45;;;23.00;61.20;;;;;;6088589;23;86847;-87
2023/11/02 09:46:33;;;;;;;47.70;24.58;;;23.00;60.90;;;;;;6086197;23;88405;-87
2023/11/02 09:48:58;;;;;;;45.85;22.85;;;23.00;58.80;;;;;;6109503;23;87867;-84
2023/11/02 09:51:24;;;;;;;48.55;23.05;;;23.00;60.00;;;;;;6083220;23;89644;-84
2023/11/02 09:53:51;;;;;;;46.63;25.10;;;23.00;59.90;;;;;;6108897;23;88557;-86
2023/11/02 09:56:20;;;;;;;45.83;23.70;;;23.00;60.20;;;;;;6110906;23;87480;-85
2023/11/02 09:58:48;;;;;;;51.08;24.08;;;23.00;60.20;;;;;;6111032;23;88597;-87
2023/11/02 10:01:14;;;;;;;47.58;24.73;;;23.00;60.40;;;;;;6083739;23;90027;-85
2023/11/02 10:03:42;;;;;;;52.97;21.92;;;23.00;60.70;;;;;;6109921;23;87320;-87
2023/11/02 10:06:08;;;;;;;48.88;23.05;;;23.00;60.40;;;;;;6083022;23;90009;-86
2023/11/02 10:08:34;;;;;;;38.70;22.08;;;23.00;60.50;;;;;;6110287;23;88383;-85
2023/11/02 10:11:14;;;;;;;42.03;22.08;;;23.00;60.70;;;;;;6111624;23;91843;-89
2023/11/02 10:13:47;;;;;;;45.67;20.88;;;23.00;60.80;;;;;;6088895;23;87401;-92
2023/11/02 10:16:13;;;;;;;44.33;19.70;;;23.00;60.70;;;;;;6061705;23;89451;-89
2023/11/02 10:18:39;;;;;;;45.70;19.90;;;23.00;61.20;;;;;;6085400;23;91069;-89
2023/11/02 10:21:05;;;;;;;43.78;18.92;;;23.00;61.10;;;;;;6106594;23;88539;-91
2023/11/02 10:24:07;;;;;;;43.95;18.98;;;23.00;61.50;;;;;;6082004;23;87471;-89
2023/11/02 10:26:34;;;;;;;40.92;19.30;;;23.10;61.40;;;;;;5986648;23;91069;-90
2023/11/02 10:29:02;;;;;;;43.40;19.23;;;23.00;60.80;;;;;;6072791;23;89563;-91
2023/11/02 10:31:33;;;;;;;43.50;20.92;;;23.00;61.10;;;;;;6084455;23;90576;-89
2023/11/02 10:34:04;;;;;;;47.90;21.75;;;23.10;61.60;;;;;;6072017;23;87724;-89
2023/11/02 10:36:30;;;;;;;42.00;20.70;;;23.10;61.90;;;;;;6059601;23;89078;-89
2023/11/02 10:38:56;;;;;;;48.00;21.83;;;23.10;62.00;;;;;;6088159;23;87532;-88
2023/11/02 10:41:22;;;;;;;49.30;19.70;;;23.10;62.20;;;;;;6091704;23;90514;-89
2023/11/02 10:43:48;;;;;;;50.70;19.90;;;23.10;61.90;;;;;;6098374;23;88183;-90
2023/11/02 10:46:16;;;;;;;48.28;19.10;;;23.10;61.80;;;;;;6088345;23;87193;-90
2023/11/02 10:48:45;;;;;;;44.25;17.05;;;23.10;62.10;;;;;;6078070;23;91003;-92
2023/11/02 10:51:16;;;;;;;43.83;17.95;;;23.10;61.70;;;;;;6093341;23;87972;-92
2023/11/02 10:54:00;;;;;;;36.08;19.13;;;23.20;61.90;;;;;;6064753;23;87468;-88
2023/11/02 10:56:30;;;;;;;47.03;16.23;;;23.20;62.00;;;;;;6117854;23;87704;-90
2023/11/02 10:58:57;;;;;;;35.53;15.82;;;23.20;61.90;;;;;;6090844;23;87702;-89
2023/11/02 11:01:26;;;;;;;46.20;17.45;;;23.20;60.70;;;;;;6087848;23;87872;-92
2023/11/02 11:03:58;;;;;;;39.65;15.98;;;23.20;61.00;;;;;;6086487;23;87219;-90
2023/11/02 11:06:25;;;;;;;25.20;12.07;;;23.20;61.00;;;;;;6090733;23;87436;-94
2023/11/02 11:08:51;;;;;;;32.22;15.77;;;23.20;60.60;;;;;;6092416;23;90217;-92
2023/11/02 11:11:18;;;;;;;34.85;15.13;;;23.20;61.10;;;;;;6092295;23;87920;-89
2023/11/02 11:13:46;;;;;;;39.83;16.52;;;23.20;61.40;;;;;;6074289;23;87313;-91
2023/11/02 11:16:14;;;;;;;37.08;14.90;;;23.20;61.70;;;;;;6095790;23;87448;-93
2023/11/02 11:18:41;;;;;;;37.30;15.50;;;23.20;61.70;;;;;;6070084;23;92389;-90
2023/11/02 11:21:08;;;;;;;30.63;14.65;;;23.20;62.00;;;;;;6114402;23;90574;-92
2023/11/02 11:23:37;;;;;;;30.75;14.55;;;23.20;62.10;;;;;;6116766;23;87395;-94
2023/11/02 11:26:04;;;;;;;41.53;15.50;;;23.20;62.20;;;;;;6095334;23;92348;-93
2023/11/02 11:28:35;;;;;;;34.13;14.77;;;23.30;62.10;;;;;;6093351;23;88190;-93
2023/11/02 11:31:05;;;;;;;29.73;13.57;;;23.30;62.20;;;;;;6064261;23;90238;-92
2023/11/02 11:33:50;;;;;;;35.58;15.50;;;23.20;61.90;;;;;;6095461;23;88304;-88
2023/11/02 11:36:23;;;;;;;24.77;13.70;;;23.30;62.30;;;;;;6107674;23;87552;-88
2023/11/02 11:38:56;;;;;;;27.67;11.95;;;23.30;62.40;;;;;;6082852;23;89516;-88
2023/11/02 11:41:45;;;;;;;29.40;12.90;;;23.30;62.40;;;;;;6088897;23;90556;-93
2023/11/02 11:44:17;;;;;;;;;;;23.30;61.80;;;;;;6088802;23;89131;-88
2023/11/02 11:47:05;;;;;;;29.05;11.48;;;23.30;61.30;;;;;;6090170;23;87201;-93
2023/11/02 11:49:39;;;;;;;29.05;12.60;;;23.30;60.30;;;;;;6065395;23;89248;-90
2023/11/02 11:52:18;;;;;;;31.58;11.30;;;23.30;60.90;;;;;;6062484;23;88571;-93
2023/11/02 11:54:44;;;;;;;25.85;10.68;;;23.40;60.50;;;;;;6058948;23;87550;-91
2023/11/02 11:57:09;;;;;;;26.13;11.73;;;23.40;60.20;;;;;;6065835;23;89769;-90
2023/11/02 11:59:54;;;;;;;19.85;9.48;;;23.40;60.30;;;;;;6114172;23;89027;-91
2023/11/02 12:02:33;;;;;;;23.65;9.30;;;23.40;60.10;;;;;;6089200;23;87923;-88
2023/11/02 12:05:00;;;;;;;28.52;10.27;;;23.40;60.40;;;;;;6086224;23;87372;-91
2023/11/02 12:07:26;;;;;;;20.38;10.38;;;23.50;60.40;;;;;;6067023;23;88942;-89
2023/11/02 12:09:52;;;;;;;23.73;8.63;;;23.60;60.70;;;;;;6084970;23;88209;-90
2023/11/02 12:12:20;;;;;;;25.20;9.70;;;23.60;60.60;;;;;;6091075;23;88305;-90
2023/11/02 12:14:47;;;;;;;20.80;10.43;;;23.70;60.40;;;;;;6085928;23;87880;-91
2023/11/02 12:20:35;;;;;;;25.35;10.50;;;23.70;60.10;;;;;;6088982;23;92318;-91
2023/11/02 12:23:01;;;;;;;29.40;11.77;;;23.70;60.80;;;;;;6089275;23;93122;-91
2023/11/02 12:25:26;;;;;;;23.75;9.65;;;23.80;59.40;;;;;;6082974;23;89300;-89
2023/11/02 12:27:56;;;;;;;39.63;11.00;;;23.80;59.60;;;;;;6116099;23;87549;-89
2023/11/02 12:30:22;;;;;;;23.25;8.90;;;23.80;56.20;;;;;;6089650;23;90855;-88
2023/11/02 12:32:48;;;;;;;22.88;7.97;;;23.80;56.00;;;;;;6118864;23;88347;-89
2023/11/02 12:35:21;;;;;;;29.80;9.75;;;23.70;55.60;;;;;;6090510;23;87103;-89
2023/11/02 12:37:59;;;;;;;23.52;9.18;;;23.80;55.00;;;;;;6117769;23;87333;-88
2023/11/02 12:40:35;;;;;;;22.08;8.43;;;23.70;56.00;;;;;;6092617;23;90847;-93
2023/11/02 12:43:00;;;;;;;19.70;7.25;;;23.80;56.70;;;;;;6090571;23;90247;-90
2023/11/02 12:45:26;;;;;;;20.88;8.45;;;23.80;55.20;;;;;;6091554;23;87201;-89
2023/11/02 12:47:52;;;;;;;21.73;7.18;;;23.80;56.30;;;;;;6091972;23;88404;-90
2023/11/02 12:50:33;;;;;;;22.48;8.88;;;23.80;56.60;;;;;;6116880;23;88778;-89
2023/11/02 12:52:58;;;;;;;21.25;7.20;;;23.80;56.50;;;;;;6118571;23;89091;-91
2023/11/02 12:55:27;;;;;;;25.42;7.90;;;23.80;55.40;;;;;;6074806;23;87278;-90
2023/11/02 12:57:53;;;;;;;20.35;7.85;;;23.80;57.00;;;;;;6088789;23;89015;-89
2023/11/02 13:00:18;;;;;;;27.77;8.00;;;23.80;56.30;;;;;;6090290;23;89704;-89
2023/11/02 13:02:47;;;;;;;26.45;8.55;;;23.80;57.40;;;;;;6119603;23;87034;-88
2023/11/02 13:05:20;;;;;;;22.50;6.72;;;23.90;57.80;;;;;;6121152;23;87263;-90